Pagrindinis puslapis
METAR-TAF:

METAR-TAF

Oro uostai :

Bodensee

Friedrichshafen, Vokietija

platuma: 47-40N, ilguma: 009-31E, Aukštis: 416 m

Dabartinis oras

Ataskaita buvo paskelbta 15 minutes, ne 20:20 UTC
Vėjas 3 kt iš Rytų, svyruoja nuo Šiaurės Rytų ir Rytų/Pietryčių
Temperatūra 5°C
Drėgmė 93%
Slėgis 1014 hPa
Matomumas 10 km arba daugiau

METAR: EDNY 272020Z AUTO 08003KT 050V110 9999 // NCD 05/04 Q1014

Laikas: 21:35 (20:35 UTC)

Prognozė

Ataskaita buvo paskelbta 1 valandą ir 25 minutes, ne 19:10 UTC
Prognozė galioja nuo 27 metu 19 UTC su 28 metu 18 UTC
Vėjas 3 kt nuo kintamojo kryptimis
Matomumas 10 km arba daugiau
nėra debesų žemiau 1500 m ir nėra kamuolinių lietaus debesų
Laikinai
nuo 27 metu 19 UTC su 28 metu 01 UTC
Matomumas: 1500 m
rūkana
Tapsmas
nuo 28 metu 10 UTC su 28 metu 12 UTC
Vėjas 5 kt iš Vakarų/Pietvakarių
Tapsmas
nuo 28 metu 16 UTC su 28 metu 18 UTC
Vėjas 2 kt nuo kintamojo kryptimis

TAF: EDNY 271910Z 2719/2818 VRB03KT CAVOK TEMPO 2719/2801 1500 BR BECMG 2810/2812 24005KT BECMG 2816/2818 VRB02KT

Orai ataskaitas ir orų prognozės (METAR, TAF).

turimą stotys yra geltonos ir raudonos taškus žemėlapyje.

Perkelti pele per norėdami pamatyti stoties vardą.

Tada spustelėkite, norėdami matyti oro stebėjimo ir prognozės.

Norėdami pakeisti žemėlapį: spustelėkite ant žalios mygtukų su juodo kryžiaus žemyn,; žalią mygtuką su brūkšneliu, jei norite nutolinti; arba žalių rodyklių gretimoms žemėlapius.


METAR-TAF: